createdAt,value
2018-08-07T00:02:09.366Z,3.83
2018-08-07T00:04:38.191Z,4.20
2018-08-07T00:07:07.219Z,4.37
2018-08-07T00:09:36.074Z,3.93
2018-08-07T00:12:04.966Z,3.83
2018-08-07T00:14:33.825Z,3.70
2018-08-07T00:17:02.690Z,3.53
2018-08-07T00:19:31.551Z,3.57
2018-08-07T00:22:00.491Z,3.57
2018-08-07T00:24:29.413Z,3.40
2018-08-07T00:26:58.300Z,3.57
2018-08-07T00:29:27.170Z,3.43
2018-08-07T00:31:59.850Z,3.37
2018-08-07T00:34:28.741Z,3.80
2018-08-07T00:36:58.344Z,3.73
2018-08-07T00:39:27.203Z,4.30
2018-08-07T00:41:56.050Z,3.90
2018-08-07T00:44:24.887Z,3.80
2018-08-07T00:46:53.749Z,3.10
2018-08-07T00:49:22.601Z,3.83
2018-08-07T00:51:51.466Z,3.50
2018-08-07T00:54:22.334Z,3.60
2018-08-07T00:56:51.257Z,3.47
2018-08-07T00:59:20.109Z,3.70
2018-08-07T01:01:48.964Z,3.63
2018-08-07T01:04:17.822Z,3.80
2018-08-07T01:06:46.663Z,4.20
2018-08-07T01:09:15.529Z,3.80
2018-08-07T01:11:44.388Z,3.60
2018-08-07T01:14:13.251Z,3.90
2018-08-07T01:16:42.087Z,4.00
2018-08-07T01:19:11.034Z,3.90
2018-08-07T01:21:40.024Z,4.13
2018-08-07T01:24:08.894Z,4.37
2018-08-07T01:26:37.765Z,3.87
2018-08-07T01:29:06.684Z,3.90
2018-08-07T01:31:35.674Z,4.00
2018-08-07T01:34:05.022Z,4.00
2018-08-07T01:36:34.296Z,3.57
2018-08-07T01:39:04.544Z,4.07
2018-08-07T01:41:33.907Z,4.23
2018-08-07T01:44:07.501Z,4.53
2018-08-07T01:46:36.457Z,4.23
2018-08-07T01:49:05.300Z,4.40
2018-08-07T01:51:34.173Z,4.50
2018-08-07T01:54:11.074Z,4.20
2018-08-07T01:56:39.949Z,4.10
2018-08-07T01:59:11.168Z,3.77
2018-08-07T02:01:40.047Z,3.87
2018-08-07T02:04:08.983Z,3.70
2018-08-07T02:06:37.846Z,3.97
2018-08-07T02:09:07.588Z,3.90
2018-08-07T02:11:36.584Z,3.97
2018-08-07T02:14:05.483Z,3.97
2018-08-07T02:16:34.323Z,3.80
2018-08-07T02:19:14.377Z,3.90
2018-08-07T02:21:43.229Z,3.80
2018-08-07T02:24:12.085Z,3.50
2018-08-07T02:26:40.953Z,4.03
2018-08-07T02:29:09.791Z,3.73
2018-08-07T02:31:38.674Z,3.83
2018-08-07T02:34:07.730Z,4.27
2018-08-07T02:36:36.597Z,4.00
2018-08-07T02:39:07.764Z,4.20
2018-08-07T02:41:36.899Z,3.70
2018-08-07T02:44:06.133Z,3.93
2018-08-07T02:46:48.822Z,3.73
2018-08-07T02:49:18.096Z,4.00
2018-08-07T02:51:47.240Z,3.83
2018-08-07T02:54:17.578Z,4.10
2018-08-07T02:56:47.265Z,4.07
2018-08-07T02:59:16.629Z,4.67
2018-08-07T03:01:46.293Z,4.13
2018-08-07T03:04:15.574Z,4.20
2018-08-07T03:06:44.423Z,4.07
2018-08-07T03:09:13.287Z,4.00
2018-08-07T03:11:52.336Z,4.47
2018-08-07T03:14:21.189Z,4.57
2018-08-07T03:16:50.043Z,4.53
2018-08-07T03:19:18.895Z,4.50
2018-08-07T03:21:47.751Z,4.67
2018-08-07T03:24:16.583Z,4.53
2018-08-07T03:26:45.426Z,4.60
2018-08-07T03:29:14.285Z,4.17
2018-08-07T03:31:43.150Z,4.47
2018-08-07T03:34:12.169Z,4.80
2018-08-07T03:36:41.025Z,4.30
2018-08-07T03:39:12.702Z,4.77
2018-08-07T03:41:41.910Z,4.40
2018-08-07T03:44:11.203Z,4.37
2018-08-07T03:46:40.062Z,4.40
2018-08-07T03:49:09.337Z,4.30
2018-08-07T03:51:38.223Z,3.67
2018-08-07T03:54:15.445Z,4.07
2018-08-07T03:56:44.334Z,4.17
2018-08-07T03:59:13.193Z,4.10
2018-08-07T04:01:44.123Z,4.00
2018-08-07T04:04:12.983Z,4.70
2018-08-07T04:06:41.836Z,4.47
2018-08-07T04:09:13.340Z,4.00
2018-08-07T04:14:45.952Z,3.90
2018-08-07T04:17:14.802Z,3.93
2018-08-07T04:19:45.721Z,4.03
2018-08-07T04:22:14.562Z,4.20
2018-08-07T04:24:43.423Z,3.73
2018-08-07T04:27:12.363Z,4.03
2018-08-07T04:29:41.238Z,3.93
2018-08-07T04:32:10.095Z,4.03
2018-08-07T04:34:38.953Z,4.40
2018-08-07T04:37:07.860Z,3.83
2018-08-07T04:39:36.711Z,4.07
2018-08-07T04:42:05.619Z,4.07
2018-08-07T04:44:34.461Z,4.00
2018-08-07T04:47:09.042Z,3.67
2018-08-07T04:49:37.882Z,4.03
2018-08-07T04:52:07.022Z,3.83
2018-08-07T04:54:35.875Z,3.90
2018-08-07T04:57:04.938Z,4.00
2018-08-07T04:59:33.809Z,3.90
2018-08-07T05:02:02.663Z,4.17
2018-08-07T05:04:31.517Z,3.60
2018-08-07T05:07:00.376Z,4.10
2018-08-07T05:09:29.239Z,3.73
2018-08-07T05:11:58.090Z,3.83
2018-08-07T05:14:26.961Z,4.00
2018-08-07T05:16:55.815Z,3.87
2018-08-07T05:19:24.671Z,4.37
2018-08-07T05:21:53.525Z,4.00
2018-08-07T05:24:32.627Z,4.10
2018-08-07T05:27:01.481Z,4.57
2018-08-07T05:29:30.361Z,5.03
2018-08-07T05:31:59.239Z,4.57
2018-08-07T05:34:28.145Z,4.63
2018-08-07T05:36:57.198Z,4.20
2018-08-07T05:39:26.065Z,4.27
2018-08-07T05:41:54.931Z,3.90
2018-08-07T05:44:23.804Z,4.63
2018-08-07T05:46:52.705Z,4.40
2018-08-07T05:49:21.563Z,4.27
2018-08-07T05:51:50.446Z,4.57
2018-08-07T05:54:19.295Z,4.70
2018-08-07T05:56:48.191Z,4.30
2018-08-07T05:59:17.104Z,4.37
2018-08-07T06:01:52.161Z,4.07
2018-08-07T06:04:21.034Z,4.50
2018-08-07T06:06:49.941Z,4.60
2018-08-07T06:09:18.800Z,4.47
2018-08-07T06:11:48.695Z,4.87
2018-08-07T06:14:17.546Z,4.87
2018-08-07T06:16:46.421Z,4.63
2018-08-07T06:19:15.394Z,4.13
2018-08-07T06:21:44.457Z,4.70
2018-08-07T06:24:13.330Z,4.50
2018-08-07T06:26:42.171Z,4.87
2018-08-07T06:29:11.039Z,4.60
2018-08-07T06:31:46.014Z,4.70
2018-08-07T06:34:14.881Z,4.30
2018-08-07T06:36:44.800Z,4.50
2018-08-07T06:39:13.659Z,4.50
2018-08-07T06:41:42.541Z,4.60
2018-08-07T06:44:11.383Z,5.00
2018-08-07T06:46:40.247Z,4.60
2018-08-07T06:49:09.087Z,4.20
2018-08-07T06:51:37.923Z,4.77
2018-08-07T06:54:07.585Z,4.73
2018-08-07T06:56:36.458Z,4.97
2018-08-07T06:59:05.367Z,4.67
2018-08-07T07:01:34.205Z,4.80
2018-08-07T07:04:05.135Z,4.73
2018-08-07T07:06:33.997Z,4.80
2018-08-07T07:09:02.871Z,4.83
2018-08-07T07:11:31.727Z,4.30
2018-08-07T07:14:02.505Z,4.07
2018-08-07T07:16:31.385Z,4.63
2018-08-07T07:19:00.235Z,4.67
2018-08-07T07:21:29.307Z,4.70
2018-08-07T07:24:01.923Z,4.60
2018-08-07T07:26:30.772Z,4.60
2018-08-07T07:28:59.649Z,5.03
2018-08-07T07:31:35.054Z,4.50
2018-08-07T07:34:03.950Z,4.57
2018-08-07T07:36:32.795Z,4.23
2018-08-07T07:39:01.664Z,4.43
2018-08-07T07:41:30.544Z,4.20
2018-08-07T07:43:59.478Z,4.67
2018-08-07T07:46:28.374Z,4.53
2018-08-07T07:48:57.258Z,4.67
2018-08-07T07:51:26.143Z,4.33
2018-08-07T07:53:55.065Z,4.77
2018-08-07T07:56:43.548Z,4.70
2018-08-07T07:59:12.441Z,4.70
2018-08-07T08:01:41.320Z,4.60
2018-08-07T08:04:14.684Z,4.50
2018-08-07T08:06:43.596Z,4.90
2018-08-07T08:09:12.445Z,4.90
2018-08-07T08:11:41.324Z,5.00
2018-08-07T08:14:10.384Z,4.50
2018-08-07T08:16:39.350Z,4.60
2018-08-07T08:19:08.236Z,4.40
2018-08-07T08:21:37.092Z,4.00
2018-08-07T08:24:06.007Z,5.00
2018-08-07T08:26:34.896Z,4.83
2018-08-07T08:29:04.020Z,4.70
2018-08-07T08:31:32.808Z,4.90
2018-08-07T08:34:01.810Z,4.50
2018-08-07T08:36:30.684Z,5.10
2018-08-07T08:38:59.548Z,5.20
2018-08-07T08:44:38.819Z,4.80
2018-08-07T08:47:07.708Z,4.33
2018-08-07T08:49:36.576Z,4.73
2018-08-07T08:52:05.500Z,4.43
2018-08-07T08:54:34.360Z,4.17
2018-08-07T08:57:04.345Z,4.90
2018-08-07T08:59:33.228Z,4.43
2018-08-07T09:02:02.093Z,5.03
2018-08-07T09:04:30.977Z,4.57
2018-08-07T09:06:59.841Z,4.20
2018-08-07T09:09:28.716Z,4.70
2018-08-07T09:11:57.600Z,4.10
2018-08-07T09:14:26.493Z,4.90
2018-08-07T09:16:55.517Z,4.33
2018-08-07T09:19:24.429Z,4.50
2018-08-07T09:21:53.299Z,4.70
2018-08-07T09:24:22.180Z,5.00
2018-08-07T09:26:51.049Z,5.67
2018-08-07T09:29:19.958Z,4.93
2018-08-07T09:31:48.845Z,5.50
2018-08-07T09:34:17.724Z,7.17
2018-08-07T09:36:47.725Z,5.50
2018-08-07T09:39:16.599Z,5.50
2018-08-07T09:41:45.502Z,5.63
2018-08-07T09:44:14.377Z,5.70
2018-08-07T09:46:49.824Z,5.50
2018-08-07T09:49:18.699Z,5.43
2018-08-07T09:51:47.583Z,6.03
2018-08-07T09:54:16.448Z,6.00
2018-08-07T09:56:46.453Z,7.20
2018-08-07T09:59:15.332Z,6.80
2018-08-07T10:01:49.634Z,6.73
2018-08-07T10:04:18.500Z,5.70
2018-08-07T10:06:51.630Z,6.10
2018-08-07T10:09:20.508Z,6.13
2018-08-07T10:11:52.859Z,5.90
2018-08-07T10:14:22.339Z,5.67
2018-08-07T10:16:58.056Z,5.83
2018-08-07T10:19:26.950Z,5.03
2018-08-07T10:21:56.158Z,5.30
2018-08-07T10:24:25.344Z,5.50
2018-08-07T10:26:54.275Z,5.10
2018-08-07T10:29:23.137Z,4.40
2018-08-07T10:31:52.034Z,4.50
2018-08-07T10:34:20.919Z,3.97
2018-08-07T10:36:49.799Z,4.30
2018-08-07T10:39:18.701Z,3.90
2018-08-07T10:41:47.590Z,4.10
2018-08-07T10:44:16.578Z,3.87
2018-08-07T10:46:45.634Z,3.90
2018-08-07T10:49:14.615Z,4.17
2018-08-07T10:51:43.514Z,3.90
2018-08-07T10:54:12.372Z,4.30
2018-08-07T10:56:41.534Z,4.13
2018-08-07T10:59:25.422Z,4.37
2018-08-07T11:01:54.381Z,4.40
2018-08-07T11:04:23.244Z,4.70
2018-08-07T11:06:54.170Z,4.40
2018-08-07T11:09:23.031Z,4.40
2018-08-07T11:11:51.936Z,4.40
2018-08-07T11:14:20.822Z,4.63
2018-08-07T11:16:49.725Z,4.50
2018-08-07T11:19:18.588Z,4.63
2018-08-07T11:21:48.517Z,4.60
2018-08-07T11:24:17.420Z,4.90
2018-08-07T11:26:46.270Z,4.73
2018-08-07T11:29:15.178Z,4.50
2018-08-07T11:31:47.850Z,4.77
2018-08-07T11:34:16.749Z,4.50
2018-08-07T11:36:45.634Z,4.03
2018-08-07T11:39:14.500Z,4.90
2018-08-07T11:41:53.843Z,4.63
2018-08-07T11:44:22.707Z,4.20
2018-08-07T11:46:51.569Z,4.60
2018-08-07T11:49:20.479Z,4.93
2018-08-07T11:51:49.368Z,4.90
2018-08-07T11:54:18.258Z,5.10
2018-08-07T11:56:47.188Z,5.00
2018-08-07T11:59:18.178Z,4.90
2018-08-07T12:01:47.400Z,4.30
2018-08-07T12:04:16.249Z,4.37
2018-08-07T12:06:45.105Z,4.20
2018-08-07T12:09:13.995Z,4.53
2018-08-07T12:11:42.852Z,4.00
2018-08-07T12:14:11.738Z,4.00
2018-08-07T12:16:40.639Z,4.20
2018-08-07T12:19:09.493Z,3.97
2018-08-07T12:21:38.421Z,4.10
2018-08-07T12:24:21.196Z,4.13
2018-08-07T12:26:50.100Z,4.50
2018-08-07T12:29:18.979Z,4.30
2018-08-07T12:31:50.999Z,4.07
2018-08-07T12:34:20.429Z,4.23
2018-08-07T12:36:49.371Z,4.00
2018-08-07T12:39:19.988Z,4.00
2018-08-07T12:42:00.958Z,4.73
2018-08-07T12:44:29.853Z,4.20
2018-08-07T12:46:58.963Z,4.10
2018-08-07T12:49:27.861Z,4.00
2018-08-07T12:51:57.882Z,4.17
2018-08-07T12:54:26.814Z,4.40
2018-08-07T12:56:55.807Z,5.17
2018-08-07T12:59:24.820Z,4.40
2018-08-07T13:01:53.821Z,4.37
2018-08-07T13:04:22.722Z,4.97
2018-08-07T13:06:51.579Z,4.70
2018-08-07T13:09:28.719Z,4.47
2018-08-07T13:11:57.611Z,4.40
2018-08-07T13:14:26.507Z,4.27
2018-08-07T13:16:55.533Z,4.40
2018-08-07T13:19:43.940Z,3.87
2018-08-07T13:22:12.812Z,4.60
2018-08-07T13:24:41.692Z,4.50
2018-08-07T13:27:16.435Z,4.20
2018-08-07T13:29:45.394Z,3.90
2018-08-07T13:32:14.335Z,4.00
2018-08-07T13:34:43.210Z,3.63
2018-08-07T13:37:12.184Z,3.73
2018-08-07T13:39:41.014Z,3.40
2018-08-07T13:42:09.939Z,3.50
2018-08-07T13:44:45.356Z,3.30
2018-08-07T13:47:14.376Z,3.40
2018-08-07T13:49:43.360Z,4.00
2018-08-07T13:52:12.169Z,4.00
2018-08-07T13:54:41.151Z,3.77
2018-08-07T13:57:10.056Z,4.17
2018-08-07T13:59:38.933Z,4.07
2018-08-07T14:02:11.277Z,4.13
2018-08-07T14:04:40.192Z,4.30
2018-08-07T14:07:09.518Z,4.10
2018-08-07T14:09:38.944Z,4.00
2018-08-07T14:12:08.302Z,4.43
2018-08-07T14:14:44.952Z,3.80
2018-08-07T14:17:13.828Z,4.17
2018-08-07T14:19:42.792Z,3.70
2018-08-07T14:22:17.957Z,4.50
2018-08-07T14:24:46.850Z,4.13
2018-08-07T14:27:15.739Z,3.70
2018-08-07T14:29:44.648Z,4.60
2018-08-07T14:32:13.535Z,3.50
2018-08-07T14:34:42.484Z,3.80
2018-08-07T14:37:11.891Z,3.60
2018-08-07T14:39:41.181Z,3.70
2018-08-07T14:42:15.657Z,3.47
2018-08-07T14:44:44.519Z,4.17
2018-08-07T14:47:13.465Z,4.20
2018-08-07T14:49:42.308Z,4.43
2018-08-07T14:52:11.168Z,4.07
2018-08-07T14:54:40.087Z,4.00
2018-08-07T14:57:09.502Z,4.20
2018-08-07T14:59:39.004Z,4.43
2018-08-07T15:02:08.245Z,3.70
2018-08-07T15:04:37.507Z,3.90
2018-08-07T15:07:06.864Z,3.87
2018-08-07T15:09:46.613Z,4.03
2018-08-07T15:12:15.928Z,4.10
2018-08-07T15:14:45.415Z,4.27
2018-08-07T15:17:14.538Z,3.90
2018-08-07T15:19:43.851Z,3.77
2018-08-07T15:22:13.261Z,3.87
2018-08-07T15:24:42.627Z,4.10
2018-08-07T15:27:16.718Z,4.43
2018-08-07T15:29:46.327Z,3.90
2018-08-07T15:32:15.689Z,4.30
2018-08-07T15:34:44.975Z,3.77
2018-08-07T15:37:14.494Z,3.97
2018-08-07T15:39:43.920Z,3.97
2018-08-07T15:42:13.362Z,4.20
2018-08-07T15:44:42.257Z,4.33
2018-08-07T15:47:11.133Z,4.70
2018-08-07T15:49:39.981Z,4.30
2018-08-07T15:52:08.894Z,4.27
2018-08-07T15:54:45.244Z,3.80
2018-08-07T15:57:14.172Z,3.70
2018-08-07T15:59:43.044Z,3.83
2018-08-07T16:02:11.925Z,4.20
2018-08-07T16:04:45.922Z,4.27
2018-08-07T16:07:14.856Z,4.40
2018-08-07T16:09:43.752Z,4.23
2018-08-07T16:12:12.645Z,4.17
2018-08-07T16:17:35.704Z,4.30
2018-08-07T16:20:05.956Z,4.00
2018-08-07T16:22:34.860Z,3.97
2018-08-07T16:25:11.197Z,4.30
2018-08-07T16:27:41.196Z,4.50
2018-08-07T16:30:13.319Z,4.67
2018-08-07T16:32:42.165Z,4.30
2018-08-07T16:35:14.978Z,4.63
2018-08-07T16:37:44.036Z,4.07
2018-08-07T16:40:15.607Z,4.03
2018-08-07T16:42:44.588Z,4.70
2018-08-07T16:45:15.639Z,4.60
2018-08-07T16:47:44.712Z,4.20
2018-08-07T16:50:15.616Z,3.77
2018-08-07T16:52:44.578Z,4.00
2018-08-07T16:55:13.434Z,3.93
2018-08-07T16:57:42.667Z,3.67
2018-08-07T17:00:12.773Z,4.00
2018-08-07T17:02:41.643Z,3.93
2018-08-07T17:05:13.910Z,3.63
2018-08-07T17:07:43.476Z,3.33
2018-08-07T17:10:15.993Z,3.43
2018-08-07T17:12:44.869Z,3.77
2018-08-07T17:15:13.819Z,3.53
2018-08-07T17:17:43.500Z,4.17
2018-08-07T17:20:15.340Z,3.77
2018-08-07T17:22:44.563Z,3.40
2018-08-07T17:25:17.453Z,3.60
2018-08-07T17:27:47.153Z,3.80
2018-08-07T17:30:21.999Z,3.63
2018-08-07T17:32:50.965Z,3.70
2018-08-07T17:35:21.385Z,3.87
2018-08-07T17:37:51.639Z,4.10
2018-08-07T17:40:21.986Z,3.87
2018-08-07T17:42:50.860Z,3.97
2018-08-07T17:45:19.819Z,3.77
2018-08-07T17:47:48.782Z,3.57
2018-08-07T17:50:19.376Z,3.80
2018-08-07T17:52:48.306Z,3.90
2018-08-07T17:55:35.348Z,3.67
2018-08-07T17:58:04.276Z,4.20
2018-08-07T18:00:33.161Z,3.80
2018-08-07T18:03:12.488Z,4.10
2018-08-07T18:05:41.390Z,3.90
2018-08-07T18:08:10.279Z,4.00
2018-08-07T18:10:39.564Z,3.73
2018-08-07T18:13:08.459Z,3.40
2018-08-07T18:15:37.338Z,3.97
2018-08-07T18:18:06.454Z,3.60
2018-08-07T18:23:29.163Z,4.07
2018-08-07T18:25:58.011Z,3.77
2018-08-07T18:28:26.908Z,3.50
2018-08-07T18:31:02.236Z,3.83
2018-08-07T18:33:31.115Z,3.67
2018-08-07T18:35:59.965Z,3.50
2018-08-07T18:38:28.848Z,3.20
2018-08-07T18:40:57.712Z,3.53
2018-08-07T18:43:26.572Z,3.53
2018-08-07T18:45:55.471Z,3.80
2018-08-07T18:48:24.332Z,3.70
2018-08-07T18:50:53.240Z,3.50
2018-08-07T18:53:22.092Z,3.80
2018-08-07T18:55:51.014Z,3.60
2018-08-07T18:58:39.579Z,4.10
2018-08-07T19:01:08.466Z,4.00
2018-08-07T19:03:37.378Z,4.43
2018-08-07T19:06:06.208Z,4.47
2018-08-07T19:08:44.674Z,4.20
2018-08-07T19:11:13.703Z,4.20
2018-08-07T19:13:42.567Z,3.93
2018-08-07T19:16:11.430Z,3.80
2018-08-07T19:18:46.905Z,3.90
2018-08-07T19:21:16.712Z,4.77
2018-08-07T19:23:45.592Z,4.83
2018-08-07T19:26:14.491Z,5.07
2018-08-07T19:28:43.388Z,4.70
2018-08-07T19:31:12.229Z,3.77
2018-08-07T19:33:41.130Z,4.03
2018-08-07T19:36:10.012Z,3.90
2018-08-07T19:38:38.911Z,4.77
2018-08-07T19:41:08.453Z,4.87
2018-08-07T19:43:37.371Z,4.90
2018-08-07T19:46:06.632Z,4.50
2018-08-07T19:48:35.531Z,5.03
2018-08-07T19:51:04.413Z,4.13
2018-08-07T19:53:39.404Z,4.73
2018-08-07T19:56:08.296Z,5.50
2018-08-07T19:58:37.162Z,5.00
2018-08-07T20:01:06.093Z,4.80
2018-08-07T20:03:35.031Z,4.70
2018-08-07T20:06:04.816Z,5.13
2018-08-07T20:08:50.812Z,5.80
2018-08-07T20:11:20.052Z,4.83
2018-08-07T20:13:49.013Z,4.47
2018-08-07T20:16:17.865Z,4.53
2018-08-07T20:18:46.740Z,4.43
2018-08-07T20:21:20.245Z,4.63
2018-08-07T20:23:49.119Z,4.27
2018-08-07T20:26:17.996Z,4.57
2018-08-07T20:28:46.940Z,5.40
2018-08-07T20:31:15.825Z,4.87
2018-08-07T20:33:44.718Z,4.70
2018-08-07T20:36:13.607Z,4.43
2018-08-07T20:38:42.526Z,4.27
2018-08-07T20:41:11.365Z,5.20
2018-08-07T20:43:40.268Z,5.00
2018-08-07T20:46:15.469Z,4.73
2018-08-07T20:48:44.378Z,4.80
2018-08-07T20:51:13.244Z,6.00
2018-08-07T20:53:42.110Z,5.23
2018-08-07T20:56:10.969Z,4.60
2018-08-07T20:58:39.844Z,4.80
2018-08-07T21:01:08.741Z,4.50
2018-08-07T21:03:49.474Z,4.40
2018-08-07T21:06:18.354Z,4.90
2018-08-07T21:08:47.330Z,4.83
2018-08-07T21:11:16.173Z,4.50
2018-08-07T21:13:45.048Z,4.37
2018-08-07T21:16:13.992Z,4.10
2018-08-07T21:18:42.818Z,4.73
2018-08-07T21:21:11.734Z,4.20
2018-08-07T21:23:40.586Z,4.60
2018-08-07T21:26:09.473Z,4.47
2018-08-07T21:28:38.401Z,4.50
2018-08-07T21:31:07.256Z,4.27
2018-08-07T21:33:36.144Z,4.07
2018-08-07T21:36:05.012Z,3.97
2018-08-07T21:38:38.374Z,4.03
2018-08-07T21:41:07.443Z,4.60
2018-08-07T21:43:36.327Z,3.83
2018-08-07T21:46:05.186Z,4.10
2018-08-07T21:48:34.071Z,3.80
2018-08-07T21:51:03.000Z,4.20
2018-08-07T21:53:31.903Z,3.93
2018-08-07T21:58:58.179Z,4.10
2018-08-07T22:01:27.107Z,4.17
2018-08-07T22:03:55.990Z,3.90
2018-08-07T22:06:24.859Z,3.80
2018-08-07T22:08:53.802Z,4.13
2018-08-07T22:11:27.618Z,3.90
2018-08-07T22:13:56.495Z,3.63
2018-08-07T22:16:25.401Z,4.00
2018-08-07T22:18:54.398Z,3.70
2018-08-07T22:21:23.308Z,4.00
2018-08-07T22:23:52.192Z,3.93
2018-08-07T22:26:21.052Z,3.50
2018-08-07T22:28:50.032Z,3.90
2018-08-07T22:31:18.897Z,4.10
2018-08-07T22:33:47.854Z,3.53
2018-08-07T22:36:16.913Z,3.73
2018-08-07T22:38:45.799Z,4.10
2018-08-07T22:41:53.589Z,3.73
2018-08-07T22:44:22.899Z,3.93
2018-08-07T22:46:57.544Z,4.07
2018-08-07T22:49:26.524Z,4.20
2018-08-07T22:51:55.556Z,4.00
2018-08-07T22:54:28.588Z,4.60
2018-08-07T22:56:57.929Z,4.90
2018-08-07T22:59:26.872Z,5.40
2018-08-07T23:01:56.246Z,5.67
2018-08-07T23:04:25.388Z,5.33
2018-08-07T23:06:54.524Z,5.47
2018-08-07T23:09:23.544Z,5.70
2018-08-07T23:11:52.540Z,6.00
2018-08-07T23:14:21.496Z,7.10
2018-08-07T23:16:50.646Z,7.20
2018-08-07T23:19:19.658Z,7.93
2018-08-07T23:21:48.784Z,8.27
2018-08-07T23:24:17.936Z,7.67
2018-08-07T23:26:46.816Z,7.80
2018-08-07T23:29:15.853Z,7.73
2018-08-07T23:31:44.948Z,8.43
2018-08-07T23:34:14.128Z,8.00
2018-08-07T23:36:43.137Z,7.63
2018-08-07T23:39:12.064Z,8.20
2018-08-07T23:41:40.968Z,8.30
2018-08-07T23:44:10.100Z,7.83
2018-08-07T23:46:39.081Z,8.47
2018-08-07T23:49:08.072Z,8.90
2018-08-07T23:51:37.160Z,8.37
2018-08-07T23:54:06.339Z,8.00
2018-08-07T23:56:35.225Z,8.03
2018-08-07T23:59:04.132Z,8.20
